createdAt,value
2018-07-13T00:00:27.158Z,9.70
2018-07-13T00:02:56.210Z,11.70
2018-07-13T00:05:25.160Z,11.00
2018-07-13T00:07:54.367Z,12.37
2018-07-13T00:10:23.387Z,10.33
2018-07-13T00:12:52.363Z,10.73
2018-07-13T00:15:21.310Z,11.77
2018-07-13T00:17:50.255Z,11.57
2018-07-13T00:20:19.223Z,11.27
2018-07-13T00:22:48.054Z,12.23
2018-07-13T00:25:16.777Z,9.70
2018-07-13T00:27:45.612Z,11.80
2018-07-13T00:30:14.553Z,13.07
2018-07-13T00:32:43.492Z,14.60
2018-07-13T00:35:12.467Z,17.80
2018-07-13T00:37:41.431Z,12.73
2018-07-13T00:40:10.464Z,13.63
2018-07-13T00:42:39.423Z,12.77
2018-07-13T00:45:08.390Z,14.37
2018-07-13T00:47:37.339Z,15.07
2018-07-13T00:50:06.299Z,16.13
2018-07-13T00:52:35.239Z,13.33
2018-07-13T00:55:04.022Z,14.97
2018-07-13T00:57:32.863Z,14.60
2018-07-13T01:00:01.840Z,15.50
2018-07-13T01:02:30.800Z,13.03
2018-07-13T01:04:59.803Z,15.20
2018-07-13T01:07:28.813Z,18.00
2018-07-13T01:09:57.872Z,17.20
2018-07-13T01:12:26.823Z,16.67
2018-07-13T01:14:55.798Z,18.10
2018-07-13T01:17:25.682Z,16.20
2018-07-13T01:19:54.668Z,18.93
2018-07-13T01:22:23.647Z,16.57
2018-07-13T01:24:52.843Z,17.93
2018-07-13T01:27:21.795Z,21.13
2018-07-13T01:29:50.883Z,18.37
2018-07-13T01:32:19.849Z,21.37
2018-07-13T01:34:48.803Z,20.03
2018-07-13T01:37:17.747Z,19.40
2018-07-13T01:39:46.723Z,21.60
2018-07-13T01:42:15.722Z,20.93
2018-07-13T01:44:44.452Z,23.13
2018-07-13T01:47:13.344Z,22.40
2018-07-13T01:49:42.299Z,18.93
2018-07-13T01:52:11.243Z,24.40
2018-07-13T01:54:40.195Z,22.80
2018-07-13T01:57:09.173Z,22.43
2018-07-13T01:59:38.212Z,21.87
2018-07-13T02:02:07.162Z,25.53
2018-07-13T02:04:36.131Z,24.77
2018-07-13T02:07:05.090Z,25.80
2018-07-13T02:09:34.051Z,22.93
2018-07-13T02:12:03.013Z,23.80
2018-07-13T02:14:32.003Z,25.63
2018-07-13T02:17:00.963Z,23.70
2018-07-13T02:19:29.943Z,21.90
2018-07-13T02:21:58.901Z,20.53
2018-07-13T02:24:27.859Z,26.10
2018-07-13T02:26:56.811Z,23.27
2018-07-13T02:29:25.792Z,26.60
2018-07-13T02:31:54.766Z,26.43
2018-07-13T02:34:23.760Z,27.93
2018-07-13T02:36:52.726Z,28.50
2018-07-13T02:39:21.699Z,28.30
2018-07-13T02:41:50.686Z,27.37
2018-07-13T02:44:19.647Z,29.73
2018-07-13T02:46:48.640Z,31.87
2018-07-13T02:49:17.607Z,33.30
2018-07-13T02:51:46.562Z,33.10
2018-07-13T02:54:15.534Z,32.33
2018-07-13T02:56:44.518Z,29.87
2018-07-13T02:59:13.487Z,35.00
2018-07-13T03:01:42.443Z,33.70
2018-07-13T03:04:11.399Z,35.13
2018-07-13T03:06:40.347Z,31.33
2018-07-13T03:09:11.088Z,33.10
2018-07-13T03:11:40.149Z,32.77
2018-07-13T03:14:09.145Z,33.13
2018-07-13T03:16:38.868Z,31.50
2018-07-13T03:19:08.110Z,38.53
2018-07-13T03:21:36.956Z,31.20
2018-07-13T03:24:06.143Z,34.17
2018-07-13T03:26:35.100Z,33.90
2018-07-13T03:29:04.076Z,33.30
2018-07-13T03:31:32.838Z,37.23
2018-07-13T03:34:01.659Z,34.00
2018-07-13T03:36:30.622Z,34.90
2018-07-13T03:38:59.654Z,36.97
2018-07-13T03:41:28.584Z,37.70
2018-07-13T03:43:57.590Z,37.03
2018-07-13T03:46:26.527Z,42.83
2018-07-13T03:48:55.471Z,40.40
2018-07-13T03:51:24.455Z,38.63
2018-07-13T03:53:53.415Z,38.53
2018-07-13T03:56:22.391Z,41.50
2018-07-13T03:58:51.385Z,38.00
2018-07-13T04:01:20.343Z,38.83
2018-07-13T04:03:49.090Z,36.43
2018-07-13T04:06:17.931Z,36.87
2018-07-13T04:08:46.879Z,38.10
2018-07-13T04:11:15.823Z,37.60
2018-07-13T04:13:44.790Z,37.73
2018-07-13T04:16:13.734Z,39.47
2018-07-13T04:18:42.681Z,40.70
2018-07-13T04:21:11.631Z,36.50
2018-07-13T04:23:40.595Z,35.67
2018-07-13T04:26:09.611Z,35.97
2018-07-13T04:28:38.575Z,39.20
2018-07-13T04:31:07.615Z,41.20
2018-07-13T04:33:36.563Z,42.13
2018-07-13T04:36:05.572Z,37.03
2018-07-13T04:38:34.504Z,43.30
2018-07-13T04:41:03.563Z,47.63
2018-07-13T04:43:32.483Z,43.97
2018-07-13T04:46:01.487Z,46.30
2018-07-13T04:48:30.445Z,44.67
2018-07-13T04:50:59.412Z,45.90
2018-07-13T04:53:28.363Z,46.90
2018-07-13T04:55:57.421Z,44.80
2018-07-13T04:58:26.397Z,45.33
2018-07-13T05:00:55.378Z,45.50
2018-07-13T05:03:24.386Z,44.20
2018-07-13T05:05:53.391Z,51.47
2018-07-13T05:08:22.360Z,47.13
2018-07-13T05:10:51.339Z,47.77
2018-07-13T05:13:20.270Z,53.20
2018-07-13T05:15:49.340Z,49.50
2018-07-13T05:18:18.395Z,50.50
2018-07-13T05:20:47.355Z,47.50
2018-07-13T05:23:16.379Z,47.83
2018-07-13T05:25:45.479Z,47.97
2018-07-13T05:28:14.758Z,43.13
2018-07-13T05:30:44.060Z,42.50
2018-07-13T05:33:12.992Z,43.80
2018-07-13T05:35:41.988Z,47.07
2018-07-13T05:38:10.959Z,42.67
2018-07-13T05:40:40.103Z,43.30
2018-07-13T05:43:09.079Z,42.03
2018-07-13T05:45:38.077Z,42.97
2018-07-13T05:48:07.035Z,43.83
2018-07-13T05:50:35.778Z,43.23
2018-07-13T05:53:04.623Z,48.93
2018-07-13T05:55:33.640Z,41.17
2018-07-13T05:58:02.599Z,38.37
2018-07-13T06:00:31.567Z,35.70
2018-07-13T06:03:00.493Z,40.00
2018-07-13T06:05:29.451Z,38.47
2018-07-13T06:07:58.523Z,38.80
2018-07-13T06:10:27.558Z,39.57
2018-07-13T06:12:56.602Z,34.93
2018-07-13T06:15:25.642Z,34.50
2018-07-13T06:17:54.633Z,34.50
2018-07-13T06:20:23.594Z,32.60
2018-07-13T06:22:52.611Z,39.70
2018-07-13T06:25:21.574Z,40.37
2018-07-13T06:27:50.539Z,32.77
2018-07-13T06:30:19.732Z,30.20
2018-07-13T06:32:48.600Z,28.00
2018-07-13T06:35:17.318Z,28.00
2018-07-13T06:37:45.950Z,33.17
2018-07-13T06:40:14.964Z,39.77
2018-07-13T06:42:43.915Z,49.70
2018-07-13T06:45:12.883Z,38.23
2018-07-13T06:47:41.837Z,39.50
2018-07-13T06:50:10.823Z,44.83
2018-07-13T06:52:39.763Z,41.63
2018-07-13T06:55:08.719Z,47.80
2018-07-13T06:57:49.088Z,51.33
2018-07-13T07:01:10.263Z,50.57
2018-07-13T07:07:58.704Z,50.10
2018-07-13T07:10:27.647Z,54.43
2018-07-13T07:13:32.583Z,53.20
2018-07-13T07:16:01.883Z,52.17
2018-07-13T07:18:30.982Z,51.70
2018-07-13T07:21:00.097Z,48.93
2018-07-13T07:23:29.699Z,46.10
2018-07-13T07:25:59.775Z,50.67
2018-07-13T07:28:28.730Z,50.50
2018-07-13T07:30:58.416Z,47.60
2018-07-13T07:33:27.389Z,44.83
2018-07-13T07:35:56.346Z,47.73
2018-07-13T07:38:25.584Z,44.90
2018-07-13T07:40:54.468Z,54.87
2018-07-13T07:43:23.430Z,58.40
2018-07-13T07:45:52.383Z,61.57
2018-07-13T07:48:21.322Z,60.00
2018-07-13T07:50:50.305Z,61.17
2018-07-13T07:53:19.265Z,64.47
2018-07-13T07:55:48.223Z,62.93
2018-07-13T07:58:17.181Z,64.80
2018-07-13T08:00:46.276Z,64.90
2018-07-13T08:03:15.205Z,63.33
2018-07-13T08:05:44.258Z,61.50
2018-07-13T08:08:13.220Z,62.90
2018-07-13T08:10:42.182Z,67.80
2018-07-13T08:13:11.000Z,71.87
2018-07-13T08:15:39.835Z,62.40
2018-07-13T08:18:08.817Z,65.03
2018-07-13T08:20:42.416Z,62.70
2018-07-13T08:23:11.371Z,64.07
2018-07-13T08:25:42.138Z,58.10
2018-07-13T08:28:11.259Z,60.07
2018-07-13T08:30:46.308Z,60.00
2018-07-13T08:33:15.263Z,55.50
2018-07-13T08:35:44.202Z,50.30
2018-07-13T08:38:13.170Z,50.60
2018-07-13T08:40:42.129Z,52.17
2018-07-13T08:43:11.055Z,47.20
2018-07-13T08:45:40.116Z,47.20
2018-07-13T08:48:08.991Z,46.57
2018-07-13T08:50:37.934Z,48.80
2018-07-13T08:53:06.891Z,46.27
2018-07-13T08:55:35.964Z,47.83
2018-07-13T08:58:04.929Z,47.10
2018-07-13T09:00:33.887Z,43.33
2018-07-13T09:03:02.851Z,47.47
2018-07-13T09:05:31.848Z,44.70
2018-07-13T09:08:00.775Z,41.40
2018-07-13T09:10:29.738Z,42.90
2018-07-13T09:12:58.684Z,45.30
2018-07-13T09:15:27.619Z,41.73
2018-07-13T09:17:56.571Z,46.13
2018-07-13T09:20:25.531Z,44.83
2018-07-13T09:22:54.573Z,40.73
2018-07-13T09:25:23.652Z,35.93
2018-07-13T09:27:52.583Z,38.73
2018-07-13T09:30:21.544Z,39.50
2018-07-13T09:32:50.499Z,36.63
2018-07-13T09:35:19.487Z,37.13
2018-07-13T09:37:48.475Z,40.07
2018-07-13T09:40:17.441Z,40.03
2018-07-13T09:42:46.395Z,38.07
2018-07-13T09:45:15.378Z,40.93
2018-07-13T09:47:44.397Z,43.03
2018-07-13T09:50:13.349Z,47.50
2018-07-13T09:52:42.309Z,37.23
2018-07-13T09:55:11.279Z,37.20
2018-07-13T09:57:40.235Z,34.17
2018-07-13T10:00:10.803Z,32.10
2018-07-13T10:02:39.826Z,33.03
2018-07-13T10:05:08.891Z,32.43
2018-07-13T10:07:37.887Z,33.53
2018-07-13T10:10:08.936Z,33.63
2018-07-13T10:12:37.895Z,35.33
2018-07-13T10:15:06.877Z,32.60
2018-07-13T10:17:35.821Z,33.03
2018-07-13T10:20:04.803Z,32.00
2018-07-13T10:22:34.083Z,34.30
2018-07-13T10:25:03.222Z,34.17
2018-07-13T10:27:34.805Z,38.30
2018-07-13T10:30:05.079Z,36.67
2018-07-13T10:32:34.259Z,37.10
2018-07-13T10:35:05.146Z,39.67
2018-07-13T10:37:34.334Z,37.63
2018-07-13T10:40:03.348Z,38.57
2018-07-13T10:42:32.304Z,43.97
2018-07-13T10:45:01.329Z,39.33
2018-07-13T10:47:30.272Z,39.90
2018-07-13T10:49:59.215Z,37.27
2018-07-13T10:52:28.214Z,40.33
2018-07-13T10:54:57.148Z,36.47
2018-07-13T10:57:26.144Z,34.43
2018-07-13T10:59:55.099Z,34.97
2018-07-13T11:02:24.041Z,38.13
2018-07-13T11:04:53.122Z,34.27
2018-07-13T11:07:22.059Z,35.97
2018-07-13T11:09:51.809Z,38.70
2018-07-13T11:12:20.773Z,39.67
2018-07-13T11:14:49.722Z,38.67
2018-07-13T11:17:18.687Z,37.70
2018-07-13T11:19:47.635Z,36.07
2018-07-13T11:22:16.576Z,35.90
2018-07-13T11:24:45.529Z,36.77
2018-07-13T11:27:14.502Z,34.50
2018-07-13T11:29:43.488Z,33.53
2018-07-13T11:32:12.656Z,37.57
2018-07-13T11:34:41.613Z,35.40
2018-07-13T11:37:10.838Z,33.20
2018-07-13T11:39:39.524Z,32.80
2018-07-13T11:42:08.480Z,32.20
2018-07-13T11:44:37.448Z,34.23
2018-07-13T11:47:06.404Z,32.73
2018-07-13T11:49:35.871Z,33.20
2018-07-13T11:52:04.878Z,29.83
2018-07-13T11:54:33.858Z,29.57
2018-07-13T11:57:02.856Z,31.07
2018-07-13T11:59:31.809Z,27.87
2018-07-13T12:02:00.800Z,28.20
2018-07-13T12:04:29.755Z,28.10
2018-07-13T12:06:58.697Z,28.60
2018-07-13T12:09:27.646Z,32.30
2018-07-13T12:11:56.649Z,31.23
2018-07-13T12:14:25.648Z,32.77
2018-07-13T12:16:54.591Z,29.20
2018-07-13T12:19:23.554Z,26.03
2018-07-13T12:21:52.516Z,28.07
2018-07-13T12:24:21.496Z,26.10
2018-07-13T12:26:50.572Z,24.50
2018-07-13T12:29:19.527Z,22.50
2018-07-13T12:31:48.445Z,25.47
2018-07-13T12:34:17.362Z,24.77
2018-07-13T12:36:46.296Z,24.50
2018-07-13T12:39:15.307Z,23.70
2018-07-13T12:41:44.267Z,22.23
2018-07-13T12:44:13.271Z,22.80
2018-07-13T12:46:43.851Z,23.07
2018-07-13T12:49:13.529Z,24.90
2018-07-13T12:51:42.599Z,25.30
2018-07-13T12:54:11.666Z,23.93
2018-07-13T12:56:40.548Z,22.17
2018-07-13T12:59:09.587Z,18.67
2018-07-13T13:01:38.554Z,20.40
2018-07-13T13:04:07.562Z,21.43
2018-07-13T13:06:36.500Z,19.67
2018-07-13T13:09:05.638Z,18.03
2018-07-13T13:11:34.595Z,18.83
2018-07-13T13:14:03.765Z,18.53
2018-07-13T13:16:32.740Z,19.07
2018-07-13T13:19:01.748Z,15.37
2018-07-13T13:21:30.808Z,15.60
2018-07-13T13:23:59.672Z,15.30
2018-07-13T13:26:28.727Z,15.67
2018-07-13T13:28:57.665Z,15.03
2018-07-13T13:31:26.695Z,16.50
2018-07-13T13:33:55.659Z,15.87
2018-07-13T13:36:24.640Z,18.30
2018-07-13T13:38:53.601Z,13.03
2018-07-13T13:41:22.597Z,15.73
2018-07-13T13:43:51.539Z,16.77
2018-07-13T13:46:20.496Z,13.73
2018-07-13T13:48:49.454Z,15.07
2018-07-13T13:51:18.421Z,14.53
2018-07-13T13:53:47.398Z,13.43
2018-07-13T13:56:16.323Z,14.20
2018-07-13T13:58:45.333Z,15.03
2018-07-13T14:01:14.292Z,17.43
2018-07-13T14:03:43.316Z,16.73
2018-07-13T14:06:12.268Z,14.63
2018-07-13T14:08:41.244Z,17.60
2018-07-13T14:11:10.192Z,13.53
2018-07-13T14:13:39.199Z,16.13
2018-07-13T14:16:08.148Z,13.03
2018-07-13T14:18:37.121Z,14.27
2018-07-13T14:21:06.448Z,16.53
2018-07-13T14:23:35.510Z,18.17
2018-07-13T14:26:04.484Z,14.30
2018-07-13T14:28:33.460Z,15.73
2018-07-13T14:31:02.423Z,13.70
2018-07-13T14:33:31.408Z,16.47
2018-07-13T14:36:00.385Z,16.33
2018-07-13T14:38:29.344Z,15.37
2018-07-13T14:40:58.292Z,15.33
2018-07-13T14:43:27.246Z,14.57
2018-07-13T14:45:56.215Z,13.30
2018-07-13T14:48:25.173Z,14.30
2018-07-13T14:50:54.136Z,19.30
2018-07-13T14:53:23.107Z,17.30
2018-07-13T14:55:52.311Z,13.37
2018-07-13T14:58:21.276Z,13.37
2018-07-13T15:00:50.264Z,15.33
2018-07-13T15:03:19.220Z,12.90
2018-07-13T15:05:48.290Z,13.73
2018-07-13T15:08:17.216Z,12.57
2018-07-13T15:10:46.181Z,15.47
2018-07-13T15:13:15.327Z,11.37
2018-07-13T15:15:44.309Z,11.43
2018-07-13T15:18:14.164Z,13.17
2018-07-13T15:20:43.135Z,13.93
2018-07-13T15:23:12.135Z,14.90
2018-07-13T15:25:41.502Z,13.50
2018-07-13T15:28:10.513Z,11.93
2018-07-13T15:30:39.558Z,13.80
2018-07-13T15:33:08.505Z,13.43
2018-07-13T15:35:37.499Z,12.17
2018-07-13T15:38:06.503Z,13.30
2018-07-13T15:40:35.459Z,14.00
2018-07-13T15:43:04.423Z,12.60
2018-07-13T15:45:33.366Z,10.50
2018-07-13T15:48:02.302Z,12.30
2018-07-13T15:50:31.300Z,13.57
2018-07-13T15:53:00.287Z,13.00
2018-07-13T15:55:34.874Z,13.97
2018-07-13T15:58:03.991Z,14.20
2018-07-13T16:00:32.975Z,13.73
2018-07-13T16:03:01.935Z,11.57
2018-07-13T16:05:30.914Z,12.30
2018-07-13T16:07:59.709Z,13.00
2018-07-13T16:10:28.572Z,16.43
2018-07-13T16:12:57.534Z,15.23
2018-07-13T16:15:26.507Z,14.47
2018-07-13T16:17:55.455Z,15.10
2018-07-13T16:20:24.320Z,11.80
2018-07-13T16:22:53.159Z,15.40
2018-07-13T16:25:22.166Z,11.53
2018-07-13T16:27:51.189Z,15.60
2018-07-13T16:30:20.198Z,14.10
2018-07-13T16:32:49.159Z,19.43
2018-07-13T16:35:18.119Z,14.87
2018-07-13T16:37:47.078Z,15.93
2018-07-13T16:40:16.185Z,19.73
2018-07-13T16:42:45.205Z,17.77
2018-07-13T16:45:14.259Z,17.30
2018-07-13T16:47:43.140Z,17.03
2018-07-13T16:50:12.119Z,25.03
2018-07-13T16:52:41.081Z,21.60
2018-07-13T16:55:10.039Z,23.47
2018-07-13T16:57:38.819Z,20.80
2018-07-13T17:00:07.683Z,17.60
2018-07-13T17:02:36.502Z,21.80
2018-07-13T17:05:06.032Z,19.17
2018-07-13T17:07:35.045Z,19.30
2018-07-13T17:10:04.032Z,20.83
2018-07-13T17:12:33.022Z,18.40
2018-07-13T17:15:02.033Z,23.23
2018-07-13T17:17:31.013Z,23.90
2018-07-13T17:19:59.969Z,28.03
2018-07-13T17:22:29.025Z,26.07
2018-07-13T17:24:58.137Z,20.73
2018-07-13T17:27:27.171Z,22.17
2018-07-13T17:29:56.199Z,20.33
2018-07-13T17:32:25.163Z,23.00
2018-07-13T17:34:54.137Z,23.23
2018-07-13T17:37:23.071Z,21.53
2018-07-13T17:39:52.055Z,21.97
2018-07-13T17:42:21.007Z,19.37
2018-07-13T17:44:50.009Z,20.43
2018-07-13T17:47:18.984Z,24.57
2018-07-13T17:49:50.223Z,19.27
2018-07-13T17:52:19.318Z,19.37
2018-07-13T17:54:48.324Z,20.33
2018-07-13T17:57:17.094Z,19.30
2018-07-13T17:59:45.928Z,14.37
2018-07-13T18:02:14.922Z,16.90
2018-07-13T18:04:43.912Z,15.73
2018-07-13T18:07:12.879Z,15.03
2018-07-13T18:09:41.827Z,19.77
2018-07-13T18:12:10.813Z,14.40
2018-07-13T18:14:39.775Z,12.90
2018-07-13T18:17:08.799Z,13.10
2018-07-13T18:19:37.827Z,12.37
2018-07-13T18:22:06.846Z,14.80
2018-07-13T18:24:35.823Z,13.10
2018-07-13T18:27:04.791Z,11.73
2018-07-13T18:29:33.811Z,11.33
2018-07-13T18:32:02.762Z,10.47
2018-07-13T18:34:31.784Z,10.03
2018-07-13T18:37:00.732Z,12.37
2018-07-13T18:39:29.716Z,11.40
2018-07-13T18:41:58.659Z,11.30
2018-07-13T18:44:27.749Z,10.03
2018-07-13T18:46:56.631Z,11.73
2018-07-13T18:49:25.647Z,9.10
2018-07-13T18:51:54.592Z,9.30
2018-07-13T18:54:23.594Z,12.27
2018-07-13T18:56:52.582Z,12.37
2018-07-13T18:59:21.633Z,10.73
2018-07-13T19:01:50.619Z,11.07
2018-07-13T19:04:19.566Z,10.13
2018-07-13T19:06:48.650Z,10.17
2018-07-13T19:09:17.648Z,9.13
2018-07-13T19:11:46.592Z,9.43
2018-07-13T19:14:15.543Z,10.90
2018-07-13T19:16:44.507Z,9.93
2018-07-13T19:19:13.464Z,12.13
2018-07-13T19:21:42.445Z,13.23
2018-07-13T19:24:11.429Z,11.07
2018-07-13T19:26:40.396Z,10.47
2018-07-13T19:29:09.349Z,10.60
2018-07-13T19:31:38.511Z,12.80
2018-07-13T19:34:07.476Z,12.23
2018-07-13T19:36:36.440Z,10.00
2018-07-13T19:39:06.447Z,10.60
2018-07-13T19:41:35.410Z,13.03
2018-07-13T19:44:04.130Z,10.23
2018-07-13T19:46:33.161Z,10.73
2018-07-13T19:49:02.121Z,11.23
2018-07-13T19:51:31.112Z,10.37
2018-07-13T19:54:00.016Z,12.30
2018-07-13T19:56:28.991Z,11.63
2018-07-13T19:58:57.942Z,11.53
2018-07-13T20:01:26.911Z,10.30
2018-07-13T20:03:55.855Z,12.30
2018-07-13T20:06:24.839Z,12.33
2018-07-13T20:08:53.813Z,12.10
2018-07-13T20:11:22.775Z,11.53
2018-07-13T20:13:51.780Z,11.87
2018-07-13T20:16:20.999Z,12.70
2018-07-13T20:18:49.957Z,11.83
2018-07-13T20:21:18.943Z,10.57
2018-07-13T20:23:47.957Z,9.60
2018-07-13T20:26:16.902Z,14.10
2018-07-13T20:28:45.910Z,9.93
2018-07-13T20:31:14.863Z,10.27
2018-07-13T20:33:43.836Z,10.87
2018-07-13T20:36:12.788Z,10.37
2018-07-13T20:38:41.744Z,10.20
2018-07-13T20:41:10.736Z,13.57
2018-07-13T20:43:39.961Z,9.53
2018-07-13T20:46:08.925Z,14.27
2018-07-13T20:48:38.079Z,11.47
2018-07-13T20:51:07.240Z,12.03
2018-07-13T20:53:36.216Z,11.97
2018-07-13T20:56:05.244Z,12.63
2018-07-13T20:58:34.227Z,11.87
2018-07-13T21:01:03.233Z,12.30
2018-07-13T21:03:32.244Z,13.83
2018-07-13T21:06:01.245Z,10.43
2018-07-13T21:08:30.228Z,11.03
2018-07-13T21:10:59.196Z,12.67
2018-07-13T21:13:28.180Z,12.13
2018-07-13T21:15:57.132Z,12.33
2018-07-13T21:18:26.120Z,11.10
2018-07-13T21:20:55.134Z,13.97
2018-07-13T21:23:24.084Z,13.47
2018-07-13T21:25:53.121Z,12.10
2018-07-13T21:28:22.098Z,12.57
2018-07-13T21:30:51.060Z,12.63
2018-07-13T21:33:20.015Z,12.87
2018-07-13T21:35:48.999Z,13.40
2018-07-13T21:38:17.955Z,13.13
2018-07-13T21:40:46.919Z,13.00
2018-07-13T21:43:15.922Z,12.20
2018-07-13T21:45:44.851Z,16.50
2018-07-13T21:48:13.821Z,12.40
2018-07-13T21:50:42.873Z,12.67
2018-07-13T21:53:11.815Z,14.63
2018-07-13T21:55:40.814Z,14.30
2018-07-13T21:58:09.827Z,13.97
2018-07-13T22:00:38.775Z,13.87
2018-07-13T22:03:07.727Z,13.80
2018-07-13T22:05:36.933Z,14.73
2018-07-13T22:08:05.940Z,14.93
2018-07-13T22:10:34.903Z,14.10
2018-07-13T22:13:03.867Z,14.80
2018-07-13T22:15:32.828Z,14.83
2018-07-13T22:18:01.791Z,15.27
2018-07-13T22:20:30.720Z,16.30
2018-07-13T22:22:59.675Z,15.30
2018-07-13T22:34:07.783Z,15.40
2018-07-13T22:36:37.326Z,15.03
2018-07-13T22:39:07.468Z,16.83
2018-07-13T22:41:37.085Z,15.80
2018-07-13T22:44:07.598Z,14.77
2018-07-13T22:46:37.649Z,15.00
2018-07-13T22:49:07.990Z,15.33
2018-07-13T22:51:37.590Z,13.50
2018-07-13T22:54:07.722Z,16.93
2018-07-13T22:56:37.325Z,14.50
2018-07-13T22:59:07.510Z,13.43
2018-07-13T23:01:37.021Z,15.30
2018-07-13T23:04:06.979Z,17.70
2018-07-13T23:06:36.111Z,17.43
2018-07-13T23:09:06.135Z,13.47
2018-07-13T23:11:35.109Z,14.80
2018-07-13T23:14:04.061Z,15.03
2018-07-13T23:16:33.042Z,15.13
2018-07-13T23:19:02.020Z,15.00
2018-07-13T23:21:31.103Z,16.30
2018-07-13T23:24:00.191Z,15.20
2018-07-13T23:26:29.107Z,12.80
2018-07-13T23:28:58.067Z,15.50
2018-07-13T23:31:27.018Z,16.17
2018-07-13T23:33:56.004Z,16.17
2018-07-13T23:36:24.938Z,17.77
2018-07-13T23:38:53.667Z,17.13
2018-07-13T23:41:22.627Z,19.90
2018-07-13T23:43:51.619Z,16.17
2018-07-13T23:46:21.559Z,17.20
2018-07-13T23:48:50.547Z,21.80
2018-07-13T23:51:19.547Z,14.33
2018-07-13T23:53:48.512Z,17.90
2018-07-13T23:56:17.458Z,14.97
2018-07-13T23:58:46.517Z,18.00
